createdAt,value
2023-04-16T00:00:35.929Z,3.85
2023-04-16T00:03:08.621Z,3.36
2023-04-16T00:05:41.110Z,3.32
2023-04-16T00:08:13.405Z,3.34
2023-04-16T00:10:45.663Z,3.21
2023-04-16T00:13:20.618Z,2.97
2023-04-16T00:15:52.871Z,3.30
2023-04-16T00:18:25.057Z,3.69
2023-04-16T00:20:57.246Z,3.30
2023-04-16T00:23:29.668Z,3.31
2023-04-16T00:26:02.060Z,3.03
2023-04-16T00:28:36.822Z,3.22
2023-04-16T00:31:09.159Z,3.00
2023-04-16T00:33:41.434Z,2.71
2023-04-16T00:36:14.035Z,2.75
2023-04-16T00:38:46.188Z,2.90
2023-04-16T00:41:18.407Z,2.85
2023-04-16T00:43:53.595Z,2.91
2023-04-16T00:46:27.697Z,3.19
2023-04-16T00:49:01.411Z,3.17
2023-04-16T00:51:34.623Z,3.54
2023-04-16T00:54:07.057Z,3.57
2023-04-16T00:56:40.722Z,3.57
2023-04-16T00:59:16.384Z,3.66
2023-04-16T01:01:48.654Z,3.82
2023-04-16T01:04:21.062Z,3.76
2023-04-16T01:06:53.531Z,3.94
2023-04-16T01:09:25.837Z,4.34
2023-04-16T01:11:58.124Z,4.11
2023-04-16T01:14:36.525Z,4.48
2023-04-16T01:17:08.900Z,4.21
2023-04-16T01:19:41.255Z,4.26
2023-04-16T01:22:16.522Z,4.17
2023-04-16T01:24:48.688Z,4.11
2023-04-16T01:27:20.873Z,4.11
2023-04-16T01:29:53.118Z,4.24
2023-04-16T01:32:25.505Z,4.76
2023-04-16T01:34:57.693Z,5.06
2023-04-16T01:37:32.510Z,5.07
2023-04-16T01:40:04.798Z,5.68
2023-04-16T01:42:37.038Z,5.56
2023-04-16T01:45:12.348Z,4.78
2023-04-16T01:47:45.095Z,4.76
2023-04-16T01:50:17.484Z,5.16
2023-04-16T01:52:52.415Z,5.34
2023-04-16T01:55:24.752Z,6.07
2023-04-16T01:57:56.889Z,5.95
2023-04-16T02:00:29.037Z,5.92
2023-04-16T02:03:01.665Z,5.66
2023-04-16T02:05:34.010Z,6.18
2023-04-16T02:08:09.279Z,7.01
2023-04-16T02:10:41.523Z,7.50
2023-04-16T02:13:14.004Z,7.71
2023-04-16T02:15:50.752Z,8.03
2023-04-16T02:18:23.225Z,7.92
2023-04-16T02:20:55.607Z,8.49
2023-04-16T02:23:31.033Z,8.90
2023-04-16T02:26:03.925Z,9.36
2023-04-16T02:28:36.134Z,9.66
2023-04-16T02:31:08.441Z,9.24
2023-04-16T02:33:40.666Z,9.62
2023-04-16T02:36:13.331Z,8.76
2023-04-16T02:38:48.063Z,9.31
2023-04-16T02:41:20.567Z,9.92
2023-04-16T02:43:52.832Z,9.27
2023-04-16T02:46:25.069Z,9.26
2023-04-16T02:48:57.273Z,9.53
2023-04-16T02:51:29.474Z,9.86
2023-04-16T02:54:04.130Z,9.69
2023-04-16T02:56:36.327Z,9.90
2023-04-16T02:59:08.693Z,10.43
2023-04-16T03:01:41.172Z,10.89
2023-04-16T03:04:13.601Z,10.79
2023-04-16T03:06:45.861Z,11.27
2023-04-16T03:09:20.700Z,11.21
2023-04-16T03:11:53.041Z,11.46
2023-04-16T03:14:25.328Z,11.55
2023-04-16T03:16:57.739Z,11.61
2023-04-16T03:19:29.976Z,12.33
2023-04-16T03:22:02.300Z,11.87
2023-04-16T03:24:37.802Z,12.14
2023-04-16T03:27:09.997Z,12.01
2023-04-16T03:29:42.231Z,12.36
2023-04-16T03:32:15.365Z,11.61
2023-04-16T03:34:47.652Z,11.64
2023-04-16T03:37:19.904Z,10.84
2023-04-16T03:39:54.773Z,11.28
2023-04-16T03:42:27.238Z,10.54
2023-04-16T03:44:59.617Z,10.93
2023-04-16T03:47:31.909Z,11.20
2023-04-16T03:50:04.192Z,11.33
2023-04-16T03:52:36.747Z,11.44
2023-04-16T03:55:12.426Z,11.18
2023-04-16T03:57:44.691Z,11.38
2023-04-16T04:00:17.293Z,11.56
2023-04-16T04:02:49.898Z,11.79
2023-04-16T04:05:22.254Z,11.89
2023-04-16T04:07:54.607Z,12.83
2023-04-16T04:10:29.462Z,12.54
2023-04-16T04:13:01.909Z,12.94
2023-04-16T04:15:34.099Z,13.07
2023-04-16T04:18:06.328Z,12.94
2023-04-16T04:20:38.576Z,13.66
2023-04-16T04:23:11.112Z,13.03
2023-04-16T04:25:46.145Z,13.12
2023-04-16T04:28:18.443Z,13.29
2023-04-16T04:30:50.693Z,13.08
2023-04-16T04:33:23.091Z,13.19
2023-04-16T04:35:55.889Z,12.95
2023-04-16T04:38:28.032Z,12.31
2023-04-16T04:41:04.352Z,11.87
2023-04-16T04:43:36.820Z,12.22
2023-04-16T04:46:09.226Z,12.56
2023-04-16T04:48:41.504Z,12.59
2023-04-16T04:51:13.791Z,12.40
2023-04-16T04:53:46.451Z,12.29
2023-04-16T04:56:21.468Z,12.19
2023-04-16T04:58:54.946Z,11.98
2023-04-16T05:01:27.097Z,12.61
2023-04-16T05:03:59.356Z,12.32
2023-04-16T05:06:31.605Z,12.36
2023-04-16T05:09:03.880Z,12.59
2023-04-16T05:11:38.901Z,12.99
2023-04-16T05:14:11.274Z,12.94
2023-04-16T05:16:43.498Z,13.21
2023-04-16T05:19:15.749Z,12.72
2023-04-16T05:21:48.003Z,12.80
2023-04-16T05:24:20.273Z,13.22
2023-04-16T05:26:55.033Z,12.84
2023-04-16T05:29:27.403Z,13.15
2023-04-16T05:31:59.868Z,13.69
2023-04-16T05:34:32.064Z,13.74
2023-04-16T05:37:04.275Z,13.61
2023-04-16T05:39:36.450Z,13.42
2023-04-16T05:42:11.494Z,13.37
2023-04-16T05:44:45.137Z,13.62
2023-04-16T05:47:17.663Z,14.02
2023-04-16T05:49:49.952Z,13.58
2023-04-16T05:52:22.259Z,13.86
2023-04-16T05:54:54.508Z,13.88
2023-04-16T05:57:29.478Z,13.68
2023-04-16T06:00:01.765Z,13.92
2023-04-16T06:02:34.786Z,13.34
2023-04-16T06:05:07.227Z,12.96
2023-04-16T06:07:39.498Z,13.59
2023-04-16T06:10:12.559Z,13.59
2023-04-16T06:12:47.495Z,13.91
2023-04-16T06:15:19.871Z,14.16
2023-04-16T06:17:52.117Z,13.94
2023-04-16T06:20:24.299Z,13.77
2023-04-16T06:22:56.786Z,14.45
2023-04-16T06:25:29.190Z,14.75
2023-04-16T06:28:04.063Z,14.46
2023-04-16T06:30:36.711Z,14.86
2023-04-16T06:33:09.116Z,15.49
2023-04-16T06:35:41.435Z,15.39
2023-04-16T06:38:13.664Z,15.99
2023-04-16T06:40:46.182Z,15.94
2023-04-16T06:43:21.859Z,16.62
2023-04-16T06:45:54.093Z,16.30
2023-04-16T06:48:26.356Z,16.41
2023-04-16T06:50:59.580Z,16.58
2023-04-16T06:53:31.956Z,16.53
2023-04-16T06:56:04.170Z,16.46
2023-04-16T06:58:38.981Z,16.02
2023-04-16T07:01:11.390Z,15.62
2023-04-16T07:03:44.246Z,16.02
2023-04-16T07:06:16.532Z,15.91
2023-04-16T07:08:48.731Z,16.21
2023-04-16T07:11:21.169Z,16.99
2023-04-16T07:13:57.064Z,17.73
2023-04-16T07:16:29.472Z,19.04
2023-04-16T07:19:01.730Z,19.91
2023-04-16T07:21:34.461Z,19.41
2023-04-16T07:24:07.079Z,19.35
2023-04-16T07:26:39.352Z,18.26
2023-04-16T07:29:14.261Z,16.67
2023-04-16T07:31:46.955Z,16.41
2023-04-16T07:34:19.351Z,16.23
2023-04-16T07:36:51.628Z,15.46
2023-04-16T07:39:23.866Z,15.28
2023-04-16T07:41:56.322Z,14.81
2023-04-16T07:44:31.278Z,15.07
2023-04-16T07:47:05.412Z,14.92
2023-04-16T07:49:38.171Z,15.56
2023-04-16T07:52:10.676Z,15.45
2023-04-16T07:54:42.846Z,15.04
2023-04-16T07:57:16.667Z,14.43
2023-04-16T07:59:51.615Z,14.24
2023-04-16T08:02:24.241Z,13.81
2023-04-16T08:04:56.605Z,13.56
2023-04-16T08:07:28.932Z,13.59
2023-04-16T08:10:01.151Z,13.58
2023-04-16T08:12:33.967Z,13.28
2023-04-16T08:15:09.784Z,13.01
2023-04-16T08:17:42.046Z,12.49
2023-04-16T08:20:17.025Z,11.56
2023-04-16T08:22:51.875Z,11.28
2023-04-16T08:25:24.905Z,11.29
2023-04-16T08:27:57.071Z,11.77
2023-04-16T08:30:32.099Z,11.00
2023-04-16T08:33:04.698Z,11.29
2023-04-16T08:35:37.595Z,11.01
2023-04-16T08:38:10.331Z,10.51
2023-04-16T08:40:44.009Z,10.44
2023-04-16T08:43:18.599Z,10.96
2023-04-16T08:45:56.468Z,10.52
2023-04-16T08:48:29.781Z,10.29
2023-04-16T08:51:05.549Z,9.88
2023-04-16T08:53:46.812Z,9.19
2023-04-16T08:56:24.042Z,9.00
2023-04-16T08:59:02.154Z,9.18
2023-04-16T09:01:39.190Z,8.82
2023-04-16T09:04:12.137Z,9.61
2023-04-16T09:06:47.530Z,8.84
2023-04-16T09:09:22.149Z,9.04
2023-04-16T09:11:56.397Z,8.61
2023-04-16T09:14:28.646Z,8.86
2023-04-16T09:17:04.943Z,8.95
2023-04-16T09:19:37.400Z,8.76
2023-04-16T09:22:10.170Z,8.61
2023-04-16T09:24:42.474Z,8.06
2023-04-16T09:27:16.709Z,8.24
2023-04-16T09:29:48.966Z,8.41
2023-04-16T09:32:30.392Z,8.47
2023-04-16T09:35:04.339Z,7.85
2023-04-16T09:37:36.514Z,8.42
2023-04-16T09:40:10.350Z,9.24
2023-04-16T09:42:42.838Z,9.57
2023-04-16T09:45:15.862Z,9.35
2023-04-16T09:47:50.714Z,9.16
2023-04-16T09:50:24.030Z,9.14
2023-04-16T09:52:56.403Z,9.42
2023-04-16T09:55:31.864Z,9.82
2023-04-16T09:58:05.237Z,10.12
2023-04-16T10:00:42.287Z,10.68
2023-04-16T10:03:18.766Z,10.77
2023-04-16T10:05:51.012Z,10.31
2023-04-16T10:08:23.299Z,10.24
2023-04-16T10:10:56.806Z,10.41
2023-04-16T10:13:31.366Z,10.31
2023-04-16T10:16:04.462Z,10.41
2023-04-16T10:18:41.725Z,10.98
2023-04-16T10:21:15.637Z,12.79
2023-04-16T10:23:49.830Z,13.41
2023-04-16T10:26:23.529Z,14.02
2023-04-16T10:28:56.914Z,13.91
2023-04-16T10:31:31.273Z,14.01
2023-04-16T10:34:07.571Z,13.85
2023-04-16T10:36:42.351Z,14.14
2023-04-16T10:39:17.224Z,13.95
2023-04-16T10:41:50.229Z,13.57
2023-04-16T10:44:24.231Z,13.13
2023-04-16T10:47:00.744Z,13.09
2023-04-16T10:49:35.561Z,12.83
2023-04-16T10:52:19.098Z,13.19
2023-04-16T10:54:52.031Z,13.51
2023-04-16T10:57:25.109Z,14.26
2023-04-16T11:00:02.704Z,14.50
2023-04-16T11:02:35.270Z,15.63
2023-04-16T11:05:10.765Z,15.93
2023-04-16T11:07:52.764Z,15.99
2023-04-16T11:10:25.005Z,15.06
2023-04-16T11:12:59.959Z,15.58
2023-04-16T11:15:33.870Z,14.86
2023-04-16T11:18:07.254Z,14.58
2023-04-16T11:20:46.158Z,14.99
2023-04-16T11:23:18.470Z,15.20
2023-04-16T11:25:51.914Z,14.72
2023-04-16T11:28:24.088Z,15.06
2023-04-16T11:30:56.377Z,14.32
2023-04-16T11:33:30.185Z,14.26
2023-04-16T11:36:05.065Z,14.17
2023-04-16T11:38:38.767Z,14.59
2023-04-16T11:41:11.208Z,15.25
2023-04-16T11:43:43.632Z,16.00
2023-04-16T11:46:26.999Z,16.62
2023-04-16T11:49:00.068Z,15.82
2023-04-16T11:51:34.946Z,16.28
2023-04-16T11:54:10.363Z,16.17
2023-04-16T11:56:51.039Z,15.56
2023-04-16T11:59:25.767Z,16.13
2023-04-16T12:01:59.573Z,15.78
2023-04-16T12:04:32.272Z,15.76
2023-04-16T12:07:15.808Z,14.49
2023-04-16T12:09:48.857Z,15.05
2023-04-16T12:12:31.670Z,15.24
2023-04-16T12:15:05.956Z,15.34
2023-04-16T12:17:39.946Z,14.51
2023-04-16T12:20:15.569Z,14.21
2023-04-16T12:22:54.053Z,14.76
2023-04-16T12:25:29.330Z,13.99
2023-04-16T12:28:02.361Z,13.24
2023-04-16T12:30:34.730Z,12.99
2023-04-16T12:33:21.451Z,13.26
2023-04-16T12:35:53.803Z,13.47
2023-04-16T12:38:28.837Z,13.01
2023-04-16T12:41:02.484Z,12.85
2023-04-16T12:43:35.041Z,12.41
2023-04-16T12:46:07.305Z,12.18
2023-04-16T12:48:39.527Z,12.58
2023-04-16T12:51:11.714Z,12.42
2023-04-16T12:53:46.557Z,13.30
2023-04-16T12:56:19.021Z,13.22
2023-04-16T12:58:52.146Z,13.51
2023-04-16T13:01:24.806Z,14.01
2023-04-16T13:03:57.449Z,13.96
2023-04-16T13:06:30.108Z,14.99
2023-04-16T13:09:07.779Z,15.42
2023-04-16T13:11:40.217Z,16.03
2023-04-16T13:14:12.524Z,16.06
2023-04-16T13:16:44.817Z,16.52
2023-04-16T13:19:19.299Z,16.12
2023-04-16T13:21:51.615Z,16.02
2023-04-16T13:24:26.390Z,16.67
2023-04-16T13:26:59.539Z,17.01
2023-04-16T13:29:31.795Z,16.73
2023-04-16T13:32:04.167Z,16.99
2023-04-16T13:34:36.809Z,17.06
2023-04-16T13:37:09.118Z,16.96
2023-04-16T13:39:43.923Z,17.06
2023-04-16T13:42:16.997Z,16.60
2023-04-16T13:44:53.191Z,16.57
2023-04-16T13:47:25.761Z,16.81
2023-04-16T13:49:58.133Z,16.51
2023-04-16T13:52:30.380Z,16.34
2023-04-16T13:55:05.220Z,16.44
2023-04-16T13:57:37.504Z,16.22
2023-04-16T14:00:13.345Z,15.81
2023-04-16T14:02:46.548Z,15.69
2023-04-16T14:05:19.640Z,15.25
2023-04-16T14:07:51.892Z,14.49
2023-04-16T14:10:26.803Z,14.70
2023-04-16T14:12:59.266Z,14.45
2023-04-16T14:15:31.770Z,14.21
2023-04-16T14:18:04.188Z,14.11
2023-04-16T14:20:36.436Z,13.91
2023-04-16T14:23:08.664Z,13.65
2023-04-16T14:25:43.726Z,13.22
2023-04-16T14:28:16.084Z,13.28
2023-04-16T14:30:48.364Z,14.02
2023-04-16T14:33:20.848Z,14.16
2023-04-16T14:35:53.177Z,13.75
2023-04-16T14:38:25.476Z,13.79
2023-04-16T14:41:00.556Z,13.33
2023-04-16T14:43:33.150Z,13.93
2023-04-16T14:46:06.712Z,13.72
2023-04-16T14:48:39.069Z,13.44
2023-04-16T14:51:11.377Z,14.18
2023-04-16T14:53:43.641Z,14.46
2023-04-16T14:56:18.493Z,14.14
2023-04-16T14:58:50.810Z,14.74
2023-04-16T15:01:23.249Z,13.96
2023-04-16T15:03:56.423Z,13.67
2023-04-16T15:06:28.877Z,14.02
2023-04-16T15:09:01.147Z,13.91
2023-04-16T15:11:36.009Z,13.71
2023-04-16T15:14:08.503Z,14.47
2023-04-16T15:16:41.245Z,14.29
2023-04-16T15:19:13.531Z,14.50
2023-04-16T15:21:48.744Z,14.16
2023-04-16T15:24:21.340Z,14.91
2023-04-16T15:26:56.367Z,15.31
2023-04-16T15:29:28.755Z,15.29
2023-04-16T15:32:01.031Z,15.52
2023-04-16T15:34:33.277Z,16.07
2023-04-16T15:37:05.535Z,16.51
2023-04-16T15:39:37.843Z,16.60
2023-04-16T15:42:13.293Z,16.69
2023-04-16T15:44:45.668Z,16.53
2023-04-16T15:47:17.914Z,16.51
2023-04-16T15:49:50.409Z,17.54
2023-04-16T15:52:22.866Z,16.83
2023-04-16T15:54:55.213Z,17.36
2023-04-16T15:57:30.171Z,18.07
2023-04-16T16:02:44.610Z,17.89
2023-04-16T16:05:18.872Z,17.04
2023-04-16T16:07:51.250Z,17.56
2023-04-16T16:10:23.504Z,17.76
2023-04-16T16:13:02.025Z,19.78
2023-04-16T16:15:34.301Z,17.93
2023-04-16T16:18:06.752Z,17.61
2023-04-16T16:20:40.729Z,17.80
2023-04-16T16:23:13.269Z,17.43
2023-04-16T16:25:45.631Z,17.70
2023-04-16T16:28:20.816Z,18.29
2023-04-16T16:30:55.813Z,17.73
2023-04-16T16:33:28.836Z,18.64
2023-04-16T16:36:01.266Z,18.51
2023-04-16T16:38:33.511Z,18.11
2023-04-16T16:41:05.991Z,17.81
2023-04-16T16:43:40.884Z,18.09
2023-04-16T16:46:13.173Z,17.85
2023-04-16T16:48:45.732Z,18.26
2023-04-16T16:51:19.118Z,18.99
2023-04-16T16:53:51.406Z,18.15
2023-04-16T16:56:23.601Z,18.52
2023-04-16T16:58:58.549Z,18.64
2023-04-16T17:01:31.628Z,18.74
2023-04-16T17:04:04.523Z,19.41
2023-04-16T17:06:36.978Z,18.54
2023-04-16T17:09:09.956Z,18.81
2023-04-16T17:11:42.573Z,19.08
2023-04-16T17:14:17.403Z,18.56
2023-04-16T17:16:50.062Z,19.36
2023-04-16T17:19:22.354Z,19.42
2023-04-16T17:21:54.799Z,18.97
2023-04-16T17:24:27.052Z,18.89
2023-04-16T17:26:59.272Z,19.64
2023-04-16T17:29:34.477Z,19.27
2023-04-16T17:32:07.487Z,19.21
2023-04-16T17:34:39.805Z,19.34
2023-04-16T17:37:12.079Z,19.91
2023-04-16T17:39:44.281Z,19.39
2023-04-16T17:42:16.667Z,20.26
2023-04-16T17:44:52.044Z,19.83
2023-04-16T17:47:24.289Z,19.64
2023-04-16T17:49:57.561Z,19.91
2023-04-16T17:52:29.902Z,20.01
2023-04-16T17:55:03.982Z,20.77
2023-04-16T17:57:36.670Z,20.19
2023-04-16T18:00:14.405Z,20.23
2023-04-16T18:02:47.063Z,19.96
2023-04-16T18:05:19.904Z,20.34
2023-04-16T18:07:52.183Z,21.25
2023-04-16T18:10:24.700Z,22.89
2023-04-16T18:12:56.996Z,25.31
2023-04-16T18:15:31.899Z,21.67
2023-04-16T18:18:04.133Z,22.27
2023-04-16T18:20:36.615Z,21.99
2023-04-16T18:23:08.992Z,22.20
2023-04-16T18:25:41.136Z,22.00
2023-04-16T18:28:14.272Z,22.29
2023-04-16T18:30:49.653Z,22.61
2023-04-16T18:33:48.922Z,23.21
2023-04-16T18:36:14.747Z,23.19
2023-04-16T18:39:00.295Z,24.18
2023-04-16T18:41:34.440Z,24.61
2023-04-16T18:44:06.644Z,24.48
2023-04-16T18:46:41.472Z,24.37
2023-04-16T18:49:13.871Z,24.95
2023-04-16T18:51:46.189Z,24.96
2023-04-16T18:54:20.200Z,24.69
2023-04-16T18:56:52.641Z,25.38
2023-04-16T18:59:24.829Z,25.12
2023-04-16T19:02:00.098Z,24.84
2023-04-16T19:04:32.465Z,25.59
2023-04-16T19:07:04.663Z,26.10
2023-04-16T19:09:36.930Z,26.04
2023-04-16T19:12:09.917Z,25.22
2023-04-16T19:14:42.218Z,24.72
2023-04-16T19:17:17.111Z,25.28
2023-04-16T19:19:49.361Z,25.46
2023-04-16T19:22:21.728Z,25.67
2023-04-16T19:24:54.845Z,25.46
2023-04-16T19:27:27.071Z,25.53
2023-04-16T19:29:59.318Z,25.05
2023-04-16T19:32:34.263Z,26.03
2023-04-16T19:35:06.715Z,25.49
2023-04-16T19:37:38.911Z,25.44
2023-04-16T19:40:12.625Z,25.49
2023-04-16T19:42:45.520Z,26.01
2023-04-16T19:45:18.493Z,25.49
2023-04-16T19:47:53.361Z,25.76
2023-04-16T19:50:25.913Z,25.86
2023-04-16T19:52:58.405Z,26.36
2023-04-16T19:55:30.606Z,26.83
2023-04-16T19:58:06.383Z,27.19
2023-04-16T20:00:42.180Z,25.50
2023-04-16T20:03:17.370Z,25.97
2023-04-16T20:05:52.436Z,27.41
2023-04-16T20:08:24.669Z,26.80
2023-04-16T20:10:57.617Z,26.49
2023-04-16T20:13:30.051Z,27.57
2023-04-16T20:16:02.292Z,27.74
2023-04-16T20:18:41.561Z,28.06
2023-04-16T20:21:15.050Z,28.17
2023-04-16T20:23:47.867Z,28.28
2023-04-16T20:26:21.046Z,27.80
2023-04-16T20:28:53.237Z,27.68
2023-04-16T20:31:25.533Z,28.39
2023-04-16T20:34:00.769Z,28.65
2023-04-16T20:36:33.073Z,28.72
2023-04-16T20:39:07.299Z,29.03
2023-04-16T20:41:43.983Z,29.74
2023-04-16T20:44:18.332Z,30.19
2023-04-16T20:46:51.134Z,30.81
2023-04-16T20:49:26.076Z,29.59
2023-04-16T20:51:58.340Z,30.23
2023-04-16T20:54:30.611Z,29.81
2023-04-16T20:57:04.818Z,29.89
2023-04-16T20:59:37.475Z,29.88
2023-04-16T21:02:10.141Z,29.29
2023-04-16T21:04:45.173Z,30.46
2023-04-16T21:07:17.554Z,30.37
2023-04-16T21:09:49.951Z,30.17
2023-04-16T21:12:22.199Z,30.71
2023-04-16T21:14:54.412Z,31.54
2023-04-16T21:17:26.668Z,31.54
2023-04-16T21:20:01.509Z,31.57
2023-04-16T21:22:33.740Z,32.09
2023-04-16T21:25:05.954Z,31.81
2023-04-16T21:27:38.186Z,30.94
2023-04-16T21:30:12.058Z,30.83
2023-04-16T21:32:44.380Z,29.90
2023-04-16T21:35:19.311Z,29.79
2023-04-16T21:37:51.589Z,28.91
2023-04-16T21:40:23.996Z,29.18
2023-04-16T21:42:56.245Z,27.74
2023-04-16T21:45:30.530Z,28.12
2023-04-16T21:48:02.987Z,27.96
2023-04-16T21:50:37.984Z,27.68
2023-04-16T21:53:10.517Z,28.26
2023-04-16T21:55:43.085Z,27.14
2023-04-16T21:58:15.852Z,26.66
2023-04-16T22:00:48.106Z,27.34
2023-04-16T22:03:26.500Z,28.00
2023-04-16T22:06:05.519Z,28.56
2023-04-16T22:08:38.122Z,28.89
2023-04-16T22:11:10.425Z,29.06
2023-04-16T22:13:42.782Z,30.03
2023-04-16T22:16:15.805Z,30.29
2023-04-16T22:18:48.043Z,30.76
2023-04-16T22:21:22.829Z,31.52
2023-04-16T22:23:55.050Z,30.42
2023-04-16T22:26:27.313Z,30.21
2023-04-16T22:28:59.580Z,30.22
2023-04-16T22:31:31.891Z,30.25
2023-04-16T22:34:04.131Z,30.01
2023-04-16T22:36:38.984Z,30.35
2023-04-16T22:39:11.583Z,30.46
2023-04-16T22:41:44.137Z,30.51
2023-04-16T22:44:16.359Z,30.09
2023-04-16T22:46:48.933Z,31.69
2023-04-16T22:49:21.228Z,31.69
2023-04-16T22:51:56.266Z,32.03
2023-04-16T22:54:32.541Z,32.16
2023-04-16T22:57:04.914Z,32.41
2023-04-16T22:59:37.093Z,30.64
2023-04-16T23:02:09.583Z,30.68
2023-04-16T23:04:41.805Z,31.41
2023-04-16T23:07:16.646Z,32.07
2023-04-16T23:09:48.881Z,32.49
2023-04-16T23:12:21.220Z,32.82
2023-04-16T23:14:53.470Z,32.41
2023-04-16T23:17:25.788Z,33.48
2023-04-16T23:19:58.007Z,32.50
2023-04-16T23:22:32.973Z,32.66
2023-04-16T23:25:05.211Z,31.94
2023-04-16T23:27:37.493Z,30.92
2023-04-16T23:30:11.140Z,31.78
2023-04-16T23:32:43.597Z,32.47
2023-04-16T23:35:20.525Z,31.92
2023-04-16T23:37:55.436Z,31.73
2023-04-16T23:40:27.709Z,33.09
2023-04-16T23:43:00.033Z,33.39
2023-04-16T23:45:32.275Z,34.04
2023-04-16T23:48:04.669Z,34.42
2023-04-16T23:50:36.987Z,34.26
2023-04-16T23:53:11.817Z,33.34
2023-04-16T23:55:44.060Z,33.08
2023-04-16T23:58:16.286Z,33.08
